createdAt,value
2022-12-04T00:01:22.031Z,29.50
2022-12-04T00:03:52.680Z,23.30
2022-12-04T00:06:20.674Z,18.88
2022-12-04T00:08:48.230Z,24.85
2022-12-04T00:11:18.040Z,20.60
2022-12-04T00:13:45.144Z,22.35
2022-12-04T00:16:17.905Z,16.95
2022-12-04T00:18:45.019Z,20.38
2022-12-04T00:21:13.412Z,23.95
2022-12-04T00:23:41.754Z,24.35
2022-12-04T00:26:11.807Z,25.05
2022-12-04T00:28:39.817Z,22.58
2022-12-04T00:31:08.806Z,20.42
2022-12-04T00:33:36.253Z,25.70
2022-12-04T00:36:06.341Z,21.23
2022-12-04T00:38:33.720Z,28.27
2022-12-04T00:41:03.405Z,28.67
2022-12-04T00:43:31.170Z,28.50
2022-12-04T00:45:58.295Z,24.02
2022-12-04T00:48:25.589Z,31.58
2022-12-04T00:50:54.146Z,23.70
2022-12-04T00:53:21.199Z,29.63
2022-12-04T00:55:47.950Z,24.77
2022-12-04T00:58:14.651Z,28.52
2022-12-04T01:00:43.097Z,22.65
2022-12-04T01:03:10.136Z,24.25
2022-12-04T01:05:41.982Z,25.27
2022-12-04T01:08:09.988Z,23.52
2022-12-04T01:10:39.452Z,22.42
2022-12-04T01:13:06.308Z,22.23
2022-12-04T01:15:33.183Z,22.90
2022-12-04T01:18:00.011Z,31.55
2022-12-04T01:20:26.814Z,24.65
2022-12-04T01:22:53.612Z,26.95
2022-12-04T01:25:20.378Z,29.33
2022-12-04T01:27:47.179Z,26.92
2022-12-04T01:30:14.293Z,31.73
2022-12-04T01:32:41.040Z,27.70
2022-12-04T01:35:08.163Z,28.48
2022-12-04T01:37:34.985Z,29.08
2022-12-04T01:40:01.721Z,31.17
2022-12-04T01:42:28.490Z,28.20
2022-12-04T01:45:32.952Z,26.92
2022-12-04T01:48:10.631Z,30.00
2022-12-04T01:50:37.928Z,26.77
2022-12-04T01:53:04.844Z,31.52
2022-12-04T01:55:32.222Z,27.08
2022-12-04T01:58:00.942Z,39.08
2022-12-04T02:00:28.091Z,33.13
2022-12-04T02:02:55.987Z,36.30
2022-12-04T02:05:23.380Z,27.25
2022-12-04T02:07:53.267Z,23.58
2022-12-04T02:10:24.674Z,30.92
2022-12-04T02:13:11.044Z,31.75
2022-12-04T02:15:40.574Z,24.35
2022-12-04T02:18:25.423Z,26.20
2022-12-04T02:21:01.269Z,32.13
2022-12-04T02:26:30.424Z,27.88
2022-12-04T02:29:21.378Z,29.42
2022-12-04T02:31:57.130Z,23.45
2022-12-04T02:34:30.549Z,25.50
2022-12-04T02:37:09.046Z,36.60
2022-12-04T02:39:49.456Z,30.65
2022-12-04T02:42:30.088Z,40.03
2022-12-04T02:45:02.573Z,19.70
2022-12-04T02:47:30.758Z,25.85
2022-12-04T02:50:00.596Z,25.50
2022-12-04T02:52:42.045Z,23.80
2022-12-04T02:55:19.225Z,29.17
2022-12-04T02:57:51.161Z,28.50
2022-12-04T03:00:18.917Z,26.30
2022-12-04T03:02:54.002Z,27.85
2022-12-04T03:05:26.196Z,32.33
2022-12-04T03:07:57.538Z,29.90
2022-12-04T03:10:46.889Z,22.85
2022-12-04T03:13:41.040Z,25.02
2022-12-04T03:16:34.938Z,25.73
2022-12-04T03:19:10.096Z,26.13
2022-12-04T03:21:40.562Z,42.00
2022-12-04T03:24:25.833Z,33.15
2022-12-04T03:27:16.760Z,32.72
2022-12-04T03:29:51.061Z,32.03
2022-12-04T03:32:39.389Z,31.88
2022-12-04T03:35:19.838Z,31.17
2022-12-04T03:38:08.923Z,28.65
2022-12-04T03:40:43.882Z,29.60
2022-12-04T03:43:16.503Z,29.03
2022-12-04T03:45:48.682Z,27.80
2022-12-04T03:48:26.252Z,30.65
2022-12-04T03:51:15.124Z,27.48
2022-12-04T03:53:52.638Z,29.67
2022-12-04T03:56:27.449Z,30.13
2022-12-04T03:59:03.100Z,34.20
2022-12-04T04:01:36.145Z,30.80
2022-12-04T04:04:07.585Z,26.27
2022-12-04T04:06:40.498Z,31.98
2022-12-04T04:09:14.066Z,34.83
2022-12-04T04:11:55.444Z,24.85
2022-12-04T04:14:54.990Z,31.50
2022-12-04T04:17:46.564Z,31.48
2022-12-04T04:20:37.499Z,37.50
2022-12-04T04:23:25.168Z,33.55
2022-12-04T04:25:53.488Z,30.63
2022-12-04T04:28:36.263Z,32.67
2022-12-04T04:31:24.676Z,28.30
2022-12-04T04:34:03.398Z,27.10
2022-12-04T04:36:53.606Z,32.88
2022-12-04T04:39:25.633Z,38.45
2022-12-04T04:42:02.600Z,28.45
2022-12-04T04:45:05.847Z,38.30
2022-12-04T04:47:45.582Z,39.25
2022-12-04T04:50:14.518Z,33.25
2022-12-04T04:52:46.116Z,38.65
2022-12-04T04:55:14.685Z,33.35
2022-12-04T04:57:41.510Z,29.65
2022-12-04T05:00:12.301Z,28.38
2022-12-04T05:02:39.231Z,35.70
2022-12-04T05:05:06.518Z,37.10
2022-12-04T05:07:33.244Z,33.88
2022-12-04T05:10:00.270Z,36.50
2022-12-04T05:12:27.152Z,42.50
2022-12-04T05:14:53.851Z,39.80
2022-12-04T05:17:20.638Z,45.15
2022-12-04T05:19:57.131Z,37.95
2022-12-04T05:22:27.644Z,36.50
2022-12-04T05:24:54.752Z,39.63
2022-12-04T05:27:22.705Z,33.45
2022-12-04T05:29:51.612Z,29.20
2022-12-04T05:32:18.357Z,37.25
2022-12-04T05:34:48.246Z,30.83
2022-12-04T05:37:15.062Z,36.65
2022-12-04T05:39:41.775Z,40.17
2022-12-04T05:42:08.652Z,33.72
2022-12-04T05:44:35.552Z,30.63
2022-12-04T05:47:02.559Z,49.83
2022-12-04T05:49:30.593Z,38.83
2022-12-04T05:51:57.493Z,27.50
2022-12-04T05:54:24.849Z,36.88
2022-12-04T05:56:51.954Z,33.40
2022-12-04T05:59:18.893Z,37.50
2022-12-04T06:01:46.072Z,31.77
2022-12-04T06:04:12.911Z,39.70
2022-12-04T06:06:40.069Z,27.48
2022-12-04T06:09:08.142Z,28.98
2022-12-04T06:11:37.168Z,26.38
2022-12-04T06:14:06.794Z,38.55
2022-12-04T06:16:36.962Z,41.53
2022-12-04T06:19:11.648Z,37.15
2022-12-04T06:21:41.034Z,31.33
2022-12-04T06:24:10.604Z,28.92
2022-12-04T06:26:43.975Z,39.75
2022-12-04T06:29:24.142Z,30.88
2022-12-04T06:31:51.287Z,33.85
2022-12-04T06:34:18.425Z,29.63
2022-12-04T06:36:45.202Z,32.90
2022-12-04T06:39:16.922Z,30.75
2022-12-04T06:41:45.377Z,31.02
2022-12-04T06:44:12.143Z,27.85
2022-12-04T06:46:43.541Z,29.63
2022-12-04T06:49:13.174Z,33.88
2022-12-04T06:51:40.885Z,29.30
2022-12-04T06:54:07.803Z,20.58
2022-12-04T06:56:35.618Z,31.52
2022-12-04T06:59:03.949Z,27.75
2022-12-04T07:01:33.230Z,28.92
2022-12-04T07:04:04.331Z,25.35
2022-12-04T07:06:36.965Z,22.90
2022-12-04T07:09:13.378Z,27.30
2022-12-04T07:11:41.093Z,30.80
2022-12-04T07:14:08.109Z,25.92
2022-12-04T07:16:40.295Z,28.90
2022-12-04T07:19:12.882Z,30.30
2022-12-04T07:21:40.289Z,21.35
2022-12-04T07:24:07.226Z,32.22
2022-12-04T07:26:34.013Z,31.48
2022-12-04T07:29:00.828Z,22.48
2022-12-04T07:31:29.630Z,25.35
2022-12-04T07:33:57.257Z,26.73
2022-12-04T07:36:26.137Z,33.72
2022-12-04T07:38:54.293Z,29.67
2022-12-04T07:41:21.234Z,26.80
2022-12-04T07:43:48.291Z,30.75
2022-12-04T07:46:20.646Z,31.33
2022-12-04T07:48:47.472Z,31.33
2022-12-04T07:51:20.072Z,24.75
2022-12-04T07:53:47.561Z,26.15
2022-12-04T07:56:16.089Z,26.92
2022-12-04T07:58:43.448Z,23.88
2022-12-04T08:01:15.758Z,24.88
2022-12-04T08:03:48.095Z,25.60
2022-12-04T08:06:20.153Z,31.98
2022-12-04T08:08:47.978Z,25.80
2022-12-04T08:11:17.889Z,23.40
2022-12-04T08:13:45.254Z,24.73
2022-12-04T08:16:12.523Z,27.95
2022-12-04T08:18:39.949Z,26.63
2022-12-04T08:21:11.908Z,26.42
2022-12-04T08:23:39.960Z,30.00
2022-12-04T08:26:07.217Z,30.08
2022-12-04T08:28:34.965Z,25.77
2022-12-04T08:31:22.219Z,30.73
2022-12-04T08:33:50.128Z,28.95
2022-12-04T08:36:19.605Z,21.00
2022-12-04T08:38:47.013Z,24.48
2022-12-04T08:41:16.059Z,29.42
2022-12-04T08:43:42.853Z,32.88
2022-12-04T08:46:15.154Z,29.10
2022-12-04T08:48:42.399Z,28.73
2022-12-04T08:51:15.541Z,29.90
2022-12-04T08:53:42.281Z,22.15
2022-12-04T08:56:09.395Z,19.98
2022-12-04T08:58:36.196Z,26.58
2022-12-04T09:01:10.537Z,25.15
2022-12-04T09:03:38.310Z,26.48
2022-12-04T09:06:06.770Z,21.00
2022-12-04T09:08:34.022Z,26.65
2022-12-04T09:11:18.545Z,21.88
2022-12-04T09:13:45.873Z,17.52
2022-12-04T09:16:16.083Z,27.08
2022-12-04T09:18:43.541Z,27.08
2022-12-04T09:21:12.731Z,20.50
2022-12-04T09:23:40.685Z,22.25
2022-12-04T09:26:19.166Z,22.17
2022-12-04T09:28:47.322Z,21.63
2022-12-04T09:31:14.247Z,23.77
2022-12-04T09:33:41.118Z,27.23
2022-12-04T09:36:08.112Z,20.70
2022-12-04T09:38:34.847Z,20.55
2022-12-04T09:41:07.545Z,27.85
2022-12-04T09:43:46.645Z,24.60
2022-12-04T09:46:24.236Z,28.50
2022-12-04T09:48:52.122Z,25.13
2022-12-04T09:51:23.112Z,26.17
2022-12-04T09:54:05.457Z,25.90
2022-12-04T09:56:32.384Z,24.45
2022-12-04T09:59:11.320Z,28.13
2022-12-04T10:01:56.525Z,26.70
2022-12-04T10:04:23.372Z,24.10
2022-12-04T10:07:04.838Z,21.92
2022-12-04T10:09:43.522Z,19.45
2022-12-04T10:12:35.190Z,26.90
2022-12-04T10:15:23.207Z,26.95
2022-12-04T10:18:08.651Z,18.75
2022-12-04T10:20:55.779Z,19.77
2022-12-04T10:23:34.449Z,19.13
2022-12-04T10:26:03.293Z,21.45
2022-12-04T10:28:39.803Z,23.70
2022-12-04T10:31:14.871Z,21.02
2022-12-04T10:33:50.897Z,18.33
2022-12-04T10:36:23.956Z,19.40
2022-12-04T10:39:30.915Z,24.48
2022-12-04T10:42:26.816Z,25.23
2022-12-04T10:44:53.923Z,19.37
2022-12-04T10:47:23.921Z,21.20
2022-12-04T10:50:02.332Z,21.27
2022-12-04T10:52:29.055Z,19.23
2022-12-04T10:54:59.754Z,20.13
2022-12-04T10:57:41.636Z,19.23
2022-12-04T11:00:29.891Z,21.17
2022-12-04T11:03:00.974Z,24.50
2022-12-04T11:05:30.224Z,19.17
2022-12-04T11:07:58.646Z,26.90
2022-12-04T11:10:31.997Z,20.13
2022-12-04T11:13:14.002Z,17.73
2022-12-04T11:15:59.656Z,18.42
2022-12-04T11:18:34.441Z,18.27
2022-12-04T11:21:07.946Z,17.52
2022-12-04T11:23:47.426Z,16.80
2022-12-04T11:26:15.337Z,16.17
2022-12-04T11:28:51.287Z,19.13
2022-12-04T11:33:49.917Z,22.75
2022-12-04T11:36:21.555Z,19.83
2022-12-04T11:38:49.598Z,12.23
2022-12-04T11:41:42.537Z,19.05
2022-12-04T11:44:30.971Z,13.73
2022-12-04T11:47:02.608Z,20.95
2022-12-04T11:49:32.307Z,13.60
2022-12-04T11:52:14.326Z,16.10
2022-12-04T11:55:01.021Z,9.77
2022-12-04T11:57:41.705Z,12.75
2022-12-04T12:00:18.241Z,14.80
2022-12-04T12:03:13.698Z,15.68
2022-12-04T12:05:49.102Z,17.60
2022-12-04T12:08:50.815Z,11.95
2022-12-04T12:11:41.013Z,11.63
2022-12-04T12:14:30.447Z,8.93
2022-12-04T12:17:32.485Z,12.65
2022-12-04T12:20:11.205Z,10.13
2022-12-04T12:22:44.009Z,11.02
2022-12-04T12:25:19.959Z,14.77
2022-12-04T12:30:24.505Z,13.67
2022-12-04T12:33:10.645Z,10.82
2022-12-04T12:36:05.081Z,7.65
2022-12-04T12:38:55.441Z,14.25
2022-12-04T12:41:25.170Z,9.15
2022-12-04T12:44:21.446Z,11.07
2022-12-04T12:47:01.468Z,12.68
2022-12-04T12:49:34.512Z,9.82
2022-12-04T12:52:13.346Z,11.18
2022-12-04T12:55:02.669Z,13.25
2022-12-04T12:57:43.054Z,6.10
2022-12-04T13:00:23.124Z,10.88
2022-12-04T13:02:53.962Z,10.80
2022-12-04T13:05:29.465Z,8.43
2022-12-04T13:07:56.215Z,12.52
2022-12-04T13:10:39.688Z,9.57
2022-12-04T13:13:17.928Z,13.55
2022-12-04T13:15:48.696Z,8.75
2022-12-04T13:18:29.433Z,8.52
2022-12-04T13:21:00.638Z,10.95
2022-12-04T13:23:46.272Z,9.95
2022-12-04T13:26:49.283Z,10.73
2022-12-04T13:29:35.120Z,9.30
2022-12-04T13:32:07.929Z,7.63
2022-12-04T13:34:50.723Z,7.05
2022-12-04T13:37:28.345Z,11.65
2022-12-04T13:40:20.106Z,9.77
2022-12-04T13:42:46.893Z,9.55
2022-12-04T13:45:27.473Z,13.35
2022-12-04T13:48:00.142Z,9.45
2022-12-04T13:50:27.483Z,7.35
2022-12-04T13:52:54.498Z,7.47
2022-12-04T13:55:28.576Z,8.15
2022-12-04T13:58:02.961Z,7.45
2022-12-04T14:00:32.842Z,7.65
2022-12-04T14:03:21.343Z,13.32
2022-12-04T14:05:48.720Z,8.20
2022-12-04T14:08:32.118Z,9.57
2022-12-04T14:11:03.614Z,9.55
2022-12-04T14:13:50.694Z,8.68
2022-12-04T14:16:39.974Z,13.05
2022-12-04T14:19:07.773Z,9.80
2022-12-04T14:21:43.516Z,10.25
2022-12-04T14:24:27.848Z,8.65
2022-12-04T14:29:54.619Z,8.02
2022-12-04T14:32:29.007Z,6.72
2022-12-04T14:34:57.015Z,8.70
2022-12-04T14:37:37.632Z,14.45
2022-12-04T14:40:09.474Z,7.13
2022-12-04T14:42:40.281Z,6.65
2022-12-04T14:45:25.383Z,9.60
2022-12-04T14:48:42.817Z,8.50
2022-12-04T14:51:12.663Z,9.43
2022-12-04T14:53:42.454Z,8.55
2022-12-04T14:56:50.436Z,10.30
2022-12-04T14:59:20.052Z,8.80
2022-12-04T15:01:49.808Z,12.57
2022-12-04T15:04:23.341Z,9.05
2022-12-04T15:06:54.245Z,13.23
2022-12-04T15:09:44.099Z,6.50
2022-12-04T15:12:34.540Z,12.07
2022-12-04T15:15:17.478Z,11.57
2022-12-04T15:17:44.372Z,14.57
2022-12-04T15:20:16.513Z,10.15
2022-12-04T15:22:44.527Z,9.73
2022-12-04T15:25:23.703Z,10.63
2022-12-04T15:27:54.070Z,9.85
2022-12-04T15:30:23.051Z,9.43
2022-12-04T15:32:53.050Z,11.43
2022-12-04T15:35:27.283Z,7.75
2022-12-04T15:37:55.125Z,12.32
2022-12-04T15:40:25.235Z,10.32
2022-12-04T15:42:52.647Z,20.30
2022-12-04T15:45:19.303Z,17.55
2022-12-04T15:47:46.038Z,8.90
2022-12-04T17:06:46.994Z,10.85
2022-12-04T17:09:14.144Z,10.05
2022-12-04T17:11:41.891Z,9.35
2022-12-04T17:14:09.459Z,9.02
2022-12-04T17:16:38.288Z,13.82
2022-12-04T17:19:05.213Z,11.05
2022-12-04T17:21:32.167Z,10.07
2022-12-04T17:23:58.959Z,10.77
2022-12-04T17:26:26.183Z,11.50
2022-12-04T17:28:53.567Z,10.07
2022-12-04T17:31:25.241Z,7.68
2022-12-04T17:33:52.732Z,9.18
2022-12-04T17:36:22.587Z,9.98
2022-12-04T17:38:56.722Z,8.82
2022-12-04T17:41:24.153Z,6.95
2022-12-04T17:43:51.122Z,7.72
2022-12-04T17:46:21.781Z,8.68
2022-12-04T17:48:49.332Z,7.35
2022-12-04T17:51:19.857Z,4.35
2022-12-04T17:53:47.105Z,7.32
2022-12-04T17:56:20.039Z,10.80
2022-12-04T17:58:47.726Z,6.53
2022-12-04T18:01:17.565Z,8.90
2022-12-04T18:03:48.972Z,8.50
2022-12-04T18:06:24.283Z,10.80
2022-12-04T18:08:51.901Z,7.10
2022-12-04T18:11:20.948Z,7.10
2022-12-04T18:13:56.780Z,4.80
2022-12-04T18:16:24.185Z,9.07
2022-12-04T18:18:54.029Z,7.10
2022-12-04T18:21:20.938Z,7.47
2022-12-04T18:23:47.747Z,10.27
2022-12-04T18:26:17.297Z,10.07
2022-12-04T18:28:44.936Z,12.90
2022-12-04T18:31:12.414Z,7.88
2022-12-04T18:33:40.924Z,12.77
2022-12-04T18:36:12.025Z,8.00
2022-12-04T18:38:39.017Z,19.05
2022-12-04T18:41:08.496Z,13.10
2022-12-04T18:43:36.648Z,7.43
2022-12-04T18:46:07.833Z,5.80
2022-12-04T18:48:36.083Z,10.25
2022-12-04T18:51:13.410Z,10.07
2022-12-04T18:53:40.184Z,12.52
2022-12-04T18:56:07.367Z,12.27
2022-12-04T18:58:34.197Z,7.00
2022-12-04T19:01:12.466Z,9.50
2022-12-04T19:03:39.323Z,7.70
2022-12-04T19:06:06.599Z,9.02
2022-12-04T19:08:36.632Z,7.97
2022-12-04T19:11:13.567Z,6.95
2022-12-04T19:13:40.841Z,8.55
2022-12-04T19:16:18.168Z,5.65
2022-12-04T19:18:46.599Z,10.50
2022-12-04T19:21:15.041Z,10.60
2022-12-04T19:23:42.892Z,10.85
2022-12-04T19:26:09.905Z,15.27
2022-12-04T19:28:36.820Z,6.13
2022-12-04T19:31:04.418Z,9.13
2022-12-04T19:33:31.324Z,7.75
2022-12-04T19:36:05.905Z,10.07
2022-12-04T19:38:33.632Z,9.05
2022-12-04T19:41:11.105Z,10.13
2022-12-04T19:43:40.040Z,4.75
2022-12-04T19:46:08.654Z,9.32
2022-12-04T19:48:37.944Z,8.00
2022-12-04T19:51:11.993Z,5.68
2022-12-04T19:53:41.119Z,7.00
2022-12-04T19:56:13.951Z,9.05
2022-12-04T19:58:41.329Z,8.48
2022-12-04T20:01:11.011Z,7.85
2022-12-04T20:03:38.176Z,14.82
2022-12-04T20:06:06.879Z,7.50
2022-12-04T20:08:34.187Z,8.07
2022-12-04T20:11:06.015Z,9.18
2022-12-04T20:13:36.074Z,8.63
2022-12-04T20:16:04.237Z,7.18
2022-12-04T20:18:31.905Z,11.35
2022-12-04T20:21:00.272Z,8.50
2022-12-04T20:23:28.030Z,10.15
2022-12-04T20:25:55.236Z,7.97
2022-12-04T20:28:22.547Z,8.00
2022-12-04T20:30:49.895Z,8.57
2022-12-04T20:33:17.135Z,10.20
2022-12-04T20:35:43.981Z,7.68
2022-12-04T20:38:10.773Z,14.18
2022-12-04T20:40:37.526Z,6.07
2022-12-04T20:43:04.352Z,10.93
2022-12-04T20:45:31.555Z,9.52
2022-12-04T20:47:58.500Z,9.77
2022-12-04T20:50:25.961Z,13.93
2022-12-04T20:52:52.750Z,9.38
2022-12-04T20:55:19.546Z,10.15
2022-12-04T20:57:46.359Z,7.30
2022-12-04T21:00:13.591Z,6.45
2022-12-04T21:02:40.422Z,8.55
2022-12-04T21:05:07.841Z,12.73
2022-12-04T21:07:34.606Z,9.10
2022-12-04T21:10:02.129Z,9.75
2022-12-04T21:12:47.331Z,10.10
2022-12-04T21:15:32.893Z,10.00
2022-12-04T21:18:01.744Z,11.07
2022-12-04T21:20:28.756Z,10.18
2022-12-04T21:22:55.562Z,9.23
2022-12-04T21:25:22.468Z,5.50
2022-12-04T21:27:49.221Z,10.50
2022-12-04T21:30:16.014Z,8.93
2022-12-04T21:32:42.807Z,8.80
2022-12-04T21:35:10.210Z,7.68
2022-12-04T21:37:37.095Z,7.78
2022-12-04T21:40:04.764Z,12.23
2022-12-04T21:42:31.560Z,12.45
2022-12-04T21:45:02.263Z,8.70
2022-12-04T21:47:29.834Z,28.85
2022-12-04T21:49:56.840Z,14.98
2022-12-04T21:52:24.482Z,12.50
2022-12-04T21:54:52.580Z,11.10
2022-12-04T21:57:19.814Z,9.15
2022-12-04T21:59:46.729Z,8.60
2022-12-04T22:02:15.445Z,14.00
2022-12-04T22:04:43.065Z,12.27
2022-12-04T22:07:11.240Z,9.77
2022-12-04T22:09:39.027Z,9.48
2022-12-04T22:12:26.487Z,10.63
2022-12-04T22:14:53.364Z,10.27
2022-12-04T22:17:20.087Z,8.95
2022-12-04T22:19:46.831Z,12.10
2022-12-04T22:22:13.664Z,13.68
2022-12-04T22:24:40.446Z,12.63
2022-12-04T22:27:07.158Z,10.82
2022-12-04T22:29:49.904Z,10.70
2022-12-04T22:32:18.015Z,9.13
2022-12-04T22:34:44.785Z,15.40
2022-12-04T22:37:11.541Z,9.43
2022-12-04T22:39:38.284Z,10.82
2022-12-04T22:42:05.107Z,11.98
2022-12-04T22:44:31.839Z,11.57
2022-12-04T22:46:58.630Z,12.40
2022-12-04T22:49:25.532Z,10.38
2022-12-04T22:51:52.308Z,13.75
2022-12-04T22:54:19.051Z,11.13
2022-12-04T22:56:48.639Z,10.88
2022-12-04T22:59:21.049Z,12.15
2022-12-04T23:01:47.812Z,13.70
2022-12-04T23:04:14.629Z,7.38
2022-12-04T23:06:41.415Z,14.65
2022-12-04T23:09:25.201Z,14.30
2022-12-04T23:11:53.567Z,11.40
2022-12-04T23:14:21.007Z,13.55
2022-12-04T23:16:48.642Z,7.78
2022-12-04T23:19:18.357Z,9.65
2022-12-04T23:21:53.439Z,9.80
2022-12-04T23:24:23.846Z,9.07
2022-12-04T23:26:50.626Z,16.85
2022-12-04T23:29:51.976Z,9.48
2022-12-04T23:32:06.586Z,16.08
2022-12-04T23:34:33.464Z,14.50
2022-12-04T23:37:00.239Z,13.13
2022-12-04T23:39:27.127Z,11.35
2022-12-04T23:41:54.017Z,9.77
2022-12-04T23:44:20.854Z,10.73
2022-12-04T23:46:47.808Z,12.55
2022-12-04T23:49:14.583Z,10.35
2022-12-04T23:51:41.311Z,10.30
2022-12-04T23:54:08.097Z,12.68
2022-12-04T23:56:34.983Z,11.07
2022-12-04T23:59:01.715Z,10.70
